.
WxDataArchive / Data Records for 2014-02-22
2014-02-21 February 2014 2014-02-23

Data Records for Saturday, 22 February 2014

Time	Temp	Chill	HIndex	Humid	Dewpt	 Wind 	HiWind	WindDir	Rain 	Barom
-----	----	-----	------	-----	-----	------	------	-------	-----	-----
00:00	37.0	37.0	37.0	58	23.6	1	3	248	0.00	29.861 
00:05	37.0	37.0	37.0	58	23.6	1	5	248	0.00	29.861 
00:10	36.8	36.8	36.8	58	23.4	0	3	248	0.00	29.861 
00:15	36.6	36.6	36.6	59	23.6	0	1	248	0.00	29.846 
00:20	36.2	36.2	36.2	59	23.3	0	2	248	0.00	29.846 
00:25	35.9	35.9	35.9	60	23.4	0	1	248	0.00	29.846 
00:30	35.8	35.8	35.8	61	23.7	0	2	248	0.00	29.841 
00:35	35.8	35.8	35.8	62	24.1	0	1	248	0.00	29.841 
00:40	35.6	35.6	35.6	62	23.9	0	1	248	0.00	29.841 
00:45	35.6	35.6	35.6	62	23.9	0	1	248	0.00	29.837 
00:50	35.8	35.8	35.8	62	24.1	0	1	248	0.00	29.837 
00:55	35.8	35.8	35.8	62	24.1	0	1	248	0.00	29.837 
01:00	35.8	35.8	35.8	63	24.5	0	1	248	0.00	29.830 
01:05	35.6	35.6	35.6	62	23.9	0	2	248	0.00	29.830 
01:10	35.6	35.6	35.6	62	23.9	0	1	248	0.00	29.830 
01:15	35.6	35.6	35.6	61	23.5	0	2	248	0.00	29.827 
01:20	35.8	35.8	35.8	60	23.3	0	2	248	0.00	29.827 
01:25	35.8	35.8	35.8	59	22.9	0	2	248	0.00	29.827 
01:30	35.8	35.8	35.8	59	22.9	0	3	248	0.00	29.819 
01:35	35.8	35.8	35.8	58	22.5	0	2	248	0.00	29.819 
01:40	35.9	35.9	35.9	58	22.6	0	3	248	0.00	29.819 
01:45	35.9	35.9	35.9	58	22.6	0	2	248	0.00	29.814 
01:50	35.9	35.9	35.9	58	22.6	0	1	248	0.00	29.814 
01:55	35.9	35.9	35.9	58	22.6	1	3	248	0.00	29.814 
02:00	35.9	35.9	35.9	58	22.6	0	2	248	0.00	29.811 
02:05	35.9	35.9	35.9	58	22.6	1	3	248	0.00	29.811 
02:10	35.9	35.9	35.9	58	22.6	0	2	248	0.00	29.811 
02:15	36.2	36.2	36.2	58	22.9	1	3	225	0.00	29.811 
02:20	36.3	36.3	36.3	58	23.0	1	5	225	0.00	29.811 
02:25	36.5	36.5	36.5	57	22.7	1	3	248	0.00	29.811 
02:30	36.6	36.6	36.6	57	22.8	2	5	248	0.00	29.814 
02:35	36.5	36.5	36.5	57	22.7	1	4	248	0.00	29.814 
02:40	36.3	36.3	36.3	57	22.5	1	4	248	0.00	29.814 
02:45	36.3	36.3	36.3	57	22.5	1	3	248	0.00	29.814 
02:50	36.2	36.2	36.2	58	22.9	1	4	248	0.00	29.814 
02:55	36.0	36.0	36.0	58	22.7	2	4	248	0.00	29.814 
03:00	36.0	36.0	36.0	58	22.7	1	3	248	0.00	29.822 
03:05	35.9	35.9	35.9	59	23.0	1	4	248	0.00	29.822 
03:10	35.6	35.6	35.6	59	22.7	1	3	248	0.00	29.822 
03:15	35.5	35.5	35.5	60	23.0	1	3	248	0.00	29.820 
03:20	35.3	35.3	35.3	60	22.8	0	4	248	0.00	29.820 
03:25	35.2	35.2	35.2	61	23.1	1	4	248	0.00	29.820 
03:30	35.2	35.2	35.2	61	23.1	1	4	248	0.00	29.825 
03:35	35.2	35.2	35.2	62	23.5	1	4	248	0.00	29.825 
03:40	35.0	35.0	35.0	62	23.3	1	4	248	0.00	29.825 
03:45	34.9	34.9	34.9	62	23.2	0	2	248	0.00	29.829 
03:50	34.7	34.7	34.7	63	23.4	1	3	248	0.00	29.829 
03:55	34.7	34.7	34.7	63	23.4	1	3	248	0.00	29.829 
04:00	34.6	34.6	34.6	64	23.7	1	4	248	0.00	29.832 
04:05	34.3	34.3	34.3	64	23.4	1	3	248	0.00	29.832 
04:10	34.1	34.1	34.1	65	23.6	1	3	248	0.00	29.832 
04:15	34.1	34.1	34.1	65	23.6	0	2	248	0.00	29.842 
04:20	33.8	33.8	33.8	66	23.7	1	3	248	0.00	29.842 
04:25	33.8	33.8	33.8	66	23.7	1	3	248	0.00	29.842 
04:30	33.7	33.7	33.7	67	23.9	0	3	248	0.00	29.841 
04:35	33.5	33.5	33.5	67	23.7	1	3	248	0.00	29.841 
04:40	33.4	33.4	33.4	66	23.3	1	2	248	0.00	29.841 
04:45	33.2	33.2	33.2	65	22.7	0	2	248	0.00	29.850 
04:50	33.1	33.1	33.1	65	22.6	0	3	248	0.00	29.850 
04:55	32.9	32.9	32.9	65	22.4	1	3	248	0.00	29.850 
05:00	32.9	32.9	32.9	64	22.1	1	4	248	0.00	29.860 
05:05	32.8	32.8	32.8	63	21.6	1	5	248	0.00	29.860 
05:10	32.7	32.7	32.7	61	20.8	2	7	248	0.00	29.860 
05:15	32.7	32.7	32.7	59	20.0	2	7	248	0.00	29.876 
05:20	32.5	32.5	32.5	56	18.6	2	7	248	0.00	29.876 
05:25	32.4	32.4	32.4	52	16.8	2	5	248	0.00	29.876 
05:30	32.1	32.1	32.1	48	14.6	2	5	270	0.00	29.893 
05:35	31.9	31.9	31.9	47	14.0	2	5	270	0.00	29.893 
05:40	31.6	31.6	31.6	46	13.2	2	9	248	0.00	29.893 
05:45	31.5	31.5	31.5	44	12.1	2	6	248	0.00	29.899 
05:50	31.3	31.3	31.3	45	12.5	2	5	248	0.00	29.899 
05:55	31.0	31.0	31.0	45	12.2	2	4	248	0.00	29.899 
06:00	30.9	30.9	30.9	45	12.1	2	6	248	0.00	29.914 
06:05	30.6	30.6	30.6	45	11.8	2	4	248	0.00	29.914 
06:10	30.3	30.3	30.3	46	12.0	1	4	248	0.00	29.914 
06:15	30.0	30.0	30.0	46	11.8	1	6	248	0.00	29.921 
06:20	29.8	29.8	29.8	46	11.6	1	4	248	0.00	29.921 
06:25	29.5	29.5	29.5	47	11.8	1	3	248	0.00	29.921 
06:30	29.4	29.4	29.4	47	11.7	1	4	248	0.00	29.955 
06:35	29.4	29.4	29.4	47	11.7	2	5	248	0.00	29.955 
06:40	29.1	29.1	29.1	48	11.9	1	4	248	0.00	29.955 
06:45	29.1	29.1	29.1	49	12.4	1	4	248	0.00	29.955 
06:50	28.8	28.8	28.8	50	12.5	1	5	248	0.00	29.955 
06:55	28.7	28.7	28.7	51	12.9	2	4	292	0.00	29.955 
07:00	28.7	28.7	28.7	51	12.9	2	4	248	0.00	29.958 
07:05	28.5	28.5	28.5	52	13.1	1	2	248	0.00	29.958 
07:10	28.4	28.4	28.4	52	13.0	1	7	248	0.00	29.958 
07:15	28.2	28.2	28.2	52	12.9	1	3	248	0.00	29.966 
07:20	28.2	28.2	28.2	53	13.3	0	3	248	0.00	29.966 
07:25	28.1	28.1	28.1	54	13.6	0	2	248	0.00	29.966 
07:30	27.9	27.9	27.9	54	13.4	0	2	248	0.00	29.973 
07:35	27.9	27.9	27.9	55	13.9	0	2	248	0.00	29.973 
07:40	27.8	27.8	27.8	55	13.8	0	2	248	0.00	29.973 
07:45	27.8	27.8	27.8	56	14.2	0	2	248	0.00	29.978 
07:50	27.9	27.9	27.9	56	14.3	1	4	248	0.00	29.978 
07:55	28.1	28.1	28.1	56	14.5	0	3	248	0.00	29.978 
08:00	28.1	28.1	28.1	57	14.9	0	2	248	0.00	29.994 
08:05	28.2	28.2	28.2	57	14.9	1	4	248	0.00	29.994 
08:10	28.4	28.4	28.4	57	15.1	1	5	248	0.00	29.994 
08:15	28.5	28.5	28.5	57	15.2	1	3	270	0.00	29.995 
08:20	28.8	28.8	28.8	57	15.5	1	2	270	0.00	29.995 
08:25	29.0	29.0	29.0	57	15.7	1	3	270	0.00	29.995 
08:30	29.3	29.3	29.3	57	16.0	1	2	270	0.00	30.006 
08:35	29.7	29.7	29.7	56	15.9	2	5	248	0.00	30.006 
08:40	30.0	30.0	30.0	56	16.2	1	3	248	0.00	30.006 
08:45	30.3	30.3	30.3	56	16.5	1	4	248	0.00	30.006 
08:50	30.6	30.6	30.6	56	16.8	1	4	248	0.00	30.006 
08:55	30.9	30.9	30.9	55	16.7	2	4	248	0.00	30.006 
09:00	31.2	31.2	31.2	55	16.9	1	4	248	0.00	30.005 
09:05	31.5	31.5	31.5	55	17.2	1	3	248	0.00	30.005 
09:10	31.9	31.9	31.9	55	17.6	1	4	248	0.00	30.005 
09:15	32.2	32.2	32.2	55	17.9	1	4	248	0.00	30.004 
09:20	32.5	32.5	32.5	55	18.2	1	4	248	0.00	30.004 
09:25	32.9	32.9	32.9	54	18.1	1	4	248	0.00	30.004 
09:30	33.2	33.2	33.2	54	18.4	1	4	270	0.00	30.006 
09:35	33.5	33.5	33.5	53	18.2	2	5	248	0.00	30.006 
09:40	33.7	33.7	33.7	53	18.4	2	6	248	0.00	30.006 
09:45	34.0	34.0	34.0	53	18.7	2	5	248	0.00	30.006 
09:50	34.3	34.3	34.3	53	19.0	2	6	270	0.00	30.006 
09:55	34.6	34.6	34.6	52	18.8	1	3	270	0.00	30.006 
10:00	34.9	34.9	34.9	51	18.6	2	9	248	0.00	30.001 
10:05	35.3	35.3	35.3	51	19.0	2	7	248	0.00	30.001 
10:10	35.6	35.6	35.6	51	19.3	2	6	248	0.00	30.001 
10:15	35.9	35.9	35.9	50	19.1	2	6	248	0.00	30.006 
10:20	36.2	36.2	36.2	49	18.9	2	5	248	0.00	30.006 
10:25	36.5	36.5	36.5	50	19.6	2	7	248	0.00	30.006 
10:30	36.6	36.6	36.6	47	18.3	2	6	270	0.00	30.019 
10:35	36.6	36.6	36.6	48	18.8	3	6	248	0.00	30.019 
10:40	36.6	36.6	36.6	49	19.3	3	6	270	0.00	30.019 
10:45	36.6	36.6	36.6	48	18.8	3	7	292	0.00	30.030 
10:50	36.5	36.5	36.5	49	19.2	3	7	248	0.00	30.030 
10:55	36.3	36.3	36.3	49	19.0	3	6	270	0.00	30.030 
11:00	36.2	36.2	36.2	50	19.4	3	8	270	0.00	30.031 
11:05	36.2	36.2	36.2	51	19.8	3	6	248	0.00	30.031 
11:10	36.2	36.2	36.2	50	19.4	3	6	270	0.00	30.031 
11:15	36.3	36.3	36.3	50	19.5	3	6	270	0.00	30.034 
11:20	36.3	36.3	36.3	49	19.0	3	10	270	0.00	30.034 
11:25	36.5	36.5	36.5	49	19.2	2	6	248	0.00	30.034 
11:30	36.6	36.6	36.6	49	19.3	2	6	270	0.00	30.034 
11:35	36.6	36.6	36.6	47	18.3	3	7	270	0.00	30.034 
11:40	36.5	33.3	36.5	48	18.7	4	9	270	0.00	30.034 
11:45	36.6	36.6	36.6	48	18.8	3	9	270	0.00	30.035 
11:50	36.8	36.8	36.8	47	18.5	3	6	248	0.00	30.035 
11:55	37.0	37.0	37.0	48	19.2	3	5	270	0.00	30.035 
12:00	37.0	37.0	37.0	48	19.2	3	7	248	0.00	30.044 
12:05	37.5	37.5	37.5	47	19.1	1	4	248	0.00	30.044 
12:10	37.6	37.6	37.6	46	18.7	2	6	248	0.00	30.044 
12:15	37.8	37.8	37.8	45	18.4	2	5	270	0.00	30.043 
12:20	37.9	37.9	37.9	44	18.0	2	7	270	0.00	30.043 
12:25	37.8	37.8	37.8	45	18.4	3	5	270	0.00	30.043 
12:30	37.9	37.9	37.9	45	18.5	2	6	315	0.00	30.038 
12:35	38.2	38.2	38.2	45	18.8	1	6	248	0.00	30.038 
12:40	38.3	38.3	38.3	43	17.8	3	5	270	0.00	30.038 
12:45	38.3	38.3	38.3	43	17.8	2	4	270	0.00	30.027 
12:50	38.3	38.3	38.3	42	17.2	2	5	270	0.00	30.027 
12:55	38.5	38.5	38.5	41	16.9	2	5	270	0.00	30.027 
13:00	38.8	38.8	38.8	43	18.2	2	5	248	0.00	30.018 
13:05	38.9	38.9	38.9	41	17.2	2	6	270	0.00	30.018 
13:10	39.5	39.5	39.5	40	17.2	1	4	292	0.00	30.018 
13:15	39.5	39.5	39.5	39	16.6	2	4	270	0.00	30.012 
13:20	39.6	39.6	39.6	40	17.3	1	3	248	0.00	30.012 
13:25	39.9	39.9	39.9	39	17.0	1	3	248	0.00	30.012 
13:30	40.2	40.2	40.2	40	17.8	1	4	248	0.00	30.004 
13:35	40.1	40.1	40.1	37	15.9	2	5	270	0.00	30.004 
13:40	39.6	39.6	39.6	39	16.7	2	4	270	0.00	30.004 
13:45	39.5	39.5	39.5	40	17.2	1	4	248	0.00	30.007 
13:50	39.8	39.8	39.8	41	18.0	1	4	248	0.00	30.007 
13:55	40.1	40.1	40.1	40	17.7	1	3	248	0.00	30.007 
14:00	40.1	40.1	40.1	39	17.2	2	3	270	0.00	30.005 
14:05	39.6	39.6	39.6	38	16.1	2	5	270	0.00	30.005 
14:10	39.2	39.2	39.2	38	15.8	2	5	248	0.00	30.005 
14:15	39.1	39.1	39.1	39	16.3	1	4	270	0.00	30.004 
14:20	38.9	38.9	38.9	41	17.2	1	3	248	0.00	30.004 
14:25	39.1	39.1	39.1	41	17.4	1	2	270	0.00	30.004 
14:30	39.3	39.3	39.3	41	17.6	1	4	270	0.00	29.999 
14:35	39.3	39.3	39.3	41	17.6	1	3	270	0.00	29.999 
14:40	39.3	39.3	39.3	41	17.6	1	3	248	0.00	29.999 
14:45	39.5	39.5	39.5	42	18.3	1	3	248	0.00	29.991 
14:50	39.6	39.6	39.6	40	17.3	1	3	248	0.00	29.991 
14:55	39.6	39.6	39.6	40	17.3	1	2	248	0.00	29.991 
15:00	39.6	39.6	39.6	41	17.9	1	3	248	0.00	29.995 
15:05	39.8	39.8	39.8	41	18.0	1	5	248	0.00	29.995 
15:10	39.5	39.5	39.5	42	18.3	1	6	248	0.00	29.995 
15:15	39.5	39.5	39.5	42	18.3	1	4	248	0.00	29.998 
15:20	39.2	39.2	39.2	43	18.6	1	3	248	0.00	29.998 
15:25	39.2	39.2	39.2	45	19.7	1	4	248	0.00	29.998 
15:30	39.1	39.1	39.1	45	19.6	1	7	270	0.00	30.000 
15:35	39.1	39.1	39.1	46	20.1	1	3	270	0.00	30.000 
15:40	39.1	39.1	39.1	47	20.6	1	3	270	0.00	30.000 
15:45	38.8	38.8	38.8	51	22.2	1	5	248	0.00	30.008 
15:50	38.5	38.5	38.5	53	22.9	1	4	248	0.00	30.008 
15:55	38.0	38.0	38.0	57	24.1	1	5	248	0.00	30.008 
16:00	37.5	37.5	37.5	60	24.9	2	5	248	0.00	30.015 
16:05	36.9	36.9	36.9	63	25.5	2	6	248	0.00	30.015 
16:10	36.3	36.3	36.3	67	26.4	2	5	270	0.00	30.015 
16:15	35.5	35.5	35.5	71	27.0	2	5	270	0.00	30.021 
16:20	34.9	34.9	34.9	74	27.5	2	4	270	0.00	30.021 
16:25	34.4	34.4	34.4	76	27.6	1	4	270	0.00	30.021 
16:30	34.1	34.1	34.1	78	28.0	1	2	248	0.00	30.025 
16:35	33.8	33.8	33.8	80	28.3	0	2	248	0.00	30.025 
16:40	33.5	33.5	33.5	81	28.3	0	3	248	0.00	30.025 
16:45	33.4	33.4	33.4	83	28.8	1	2	248	0.00	30.025 
16:50	33.1	33.1	33.1	84	28.8	0	2	248	0.00	30.025 
16:55	33.1	33.1	33.1	84	28.8	0	2	248	0.00	30.025 
17:00	32.9	32.9	32.9	85	28.9	0	1	248	0.00	30.017 
17:05	32.9	32.9	32.9	86	29.2	0	2	248	0.00	30.017 
17:10	32.8	32.8	32.8	86	29.1	0	1	248	0.00	30.017 
17:15	32.8	32.8	32.8	87	29.4	0	0	---	0.00	30.010 
17:20	32.8	32.8	32.8	87	29.4	0	1	248	0.00	30.010 
17:25	32.8	32.8	32.8	87	29.4	0	1	248	0.00	30.010 
17:30	32.8	32.8	32.8	88	29.6	0	1	248	0.00	30.014 
17:35	32.7	32.7	32.7	88	29.5	0	1	248	0.00	30.014 
17:40	32.7	32.7	32.7	88	29.5	0	1	248	0.00	30.014 
17:45	32.5	32.5	32.5	88	29.3	0	1	248	0.00	30.016 
17:50	32.5	32.5	32.5	88	29.3	0	1	248	0.00	30.016 
17:55	32.5	32.5	32.5	89	29.6	0	1	248	0.00	30.016 
18:00	32.4	32.4	32.4	89	29.5	0	1	248	0.00	30.009 
18:05	32.4	32.4	32.4	89	29.5	0	2	248	0.00	30.009 
18:10	32.4	32.4	32.4	89	29.5	0	1	248	0.00	30.009 
18:15	32.2	32.2	32.2	89	29.3	0	1	248	0.00	30.009 
18:20	32.2	32.2	32.2	90	29.6	0	0	---	0.00	30.009 
18:25	32.2	32.2	32.2	90	29.6	0	1	248	0.00	30.009 
18:30	32.1	32.1	32.1	90	29.5	0	1	248	0.00	30.006 
18:35	32.1	32.1	32.1	90	29.5	0	0	---	0.00	30.006 
18:40	32.1	32.1	32.1	90	29.5	0	1	248	0.00	30.006 
18:45	32.1	32.1	32.1	90	29.5	0	1	248	0.00	30.009 
18:50	32.1	32.1	32.1	91	29.8	0	1	248	0.00	30.009 
18:55	32.1	32.1	32.1	91	29.8	0	1	248	0.00	30.009 
19:00	32.1	32.1	32.1	91	29.8	0	2	248	0.00	30.008 
19:05	32.1	32.1	32.1	91	29.8	0	1	248	0.00	30.008 
19:10	32.2	32.2	32.2	91	29.9	0	1	248	0.00	30.008 
19:15	32.4	32.4	32.4	91	30.1	0	0	---	0.00	30.017 
19:20	32.4	32.4	32.4	91	30.1	0	1	248	0.00	30.017 
19:25	32.4	32.4	32.4	91	30.1	0	0	---	0.00	30.017 
19:30	32.5	32.5	32.5	91	30.2	0	1	248	0.00	30.027 
19:35	32.5	32.5	32.5	91	30.2	0	1	248	0.00	30.027 
19:40	32.5	32.5	32.5	91	30.2	0	0	---	0.00	30.027 
19:45	32.5	32.5	32.5	92	30.4	0	0	---	0.00	30.027 
19:50	32.7	32.7	32.7	92	30.6	0	0	---	0.00	30.027 
19:55	32.7	32.7	32.7	92	30.6	0	0	---	0.00	30.027 
20:00	32.7	32.7	32.7	92	30.6	0	0	---	0.00	30.028 
20:05	32.8	32.8	32.8	92	30.7	0	1	248	0.00	30.028 
20:10	32.8	32.8	32.8	92	30.7	0	1	248	0.00	30.028 
20:15	32.8	32.8	32.8	92	30.7	0	2	248	0.00	30.022 
20:20	32.9	32.9	32.9	92	30.8	0	1	248	0.00	30.022 
20:25	32.9	32.9	32.9	92	30.8	0	0	---	0.00	30.022 
20:30	32.9	32.9	32.9	92	30.8	0	1	248	0.00	30.024 
20:35	32.9	32.9	32.9	92	30.8	0	1	248	0.00	30.024 
20:40	33.1	33.1	33.1	92	31.0	0	1	248	0.00	30.024 
20:45	33.1	33.1	33.1	92	31.0	0	2	248	0.00	30.020 
20:50	33.1	33.1	33.1	92	31.0	0	1	248	0.00	30.020 
20:55	33.1	33.1	33.1	92	31.0	0	2	248	0.00	30.020 
21:00	33.2	33.2	33.2	92	31.1	0	2	248	0.00	30.023 
21:05	33.2	33.2	33.2	92	31.1	0	1	248	0.00	30.023 
21:10	33.2	33.2	33.2	92	31.1	0	2	248	0.00	30.023 
21:15	33.2	33.2	33.2	92	31.1	0	3	248	0.00	30.022 
21:20	33.2	33.2	33.2	92	31.1	0	2	248	0.00	30.022 
21:25	33.2	33.2	33.2	92	31.1	0	1	248	0.00	30.022 
21:30	33.2	33.2	33.2	92	31.1	0	2	248	0.00	30.025 
21:35	33.1	33.1	33.1	92	31.0	0	2	248	0.00	30.025 
21:40	33.1	33.1	33.1	92	31.0	0	1	248	0.00	30.025 
21:45	33.1	33.1	33.1	92	31.0	0	1	248	0.00	30.023 
21:50	33.1	33.1	33.1	92	31.0	0	1	248	0.00	30.023 
21:55	33.1	33.1	33.1	92	31.0	0	1	248	0.00	30.023 
22:00	33.1	33.1	33.1	92	31.0	0	2	248	0.00	30.028 
22:05	33.1	33.1	33.1	92	31.0	0	2	248	0.00	30.028 
22:10	33.1	33.1	33.1	92	31.0	0	1	248	0.00	30.028 
22:15	33.1	33.1	33.1	92	31.0	0	1	248	0.00	30.025 
22:20	33.1	33.1	33.1	92	31.0	0	1	248	0.00	30.025 
22:25	32.9	32.9	32.9	92	30.8	0	2	248	0.01	30.025 
22:30	32.8	32.8	32.8	92	30.7	0	2	248	0.00	30.019 
22:35	32.8	32.8	32.8	92	30.7	0	2	248	0.00	30.019 
22:40	32.7	32.7	32.7	92	30.6	0	1	248	0.00	30.019 
22:45	32.7	32.7	32.7	91	30.4	0	1	248	0.00	30.018 
22:50	32.7	32.7	32.7	91	30.4	0	1	248	0.00	30.018 
22:55	32.7	32.7	32.7	91	30.4	0	1	248	0.00	30.018 
23:00	32.7	32.7	32.7	90	30.1	0	1	248	0.00	30.025 
23:05	32.7	32.7	32.7	90	30.1	0	1	248	0.00	30.025 
23:10	32.5	32.5	32.5	89	29.6	0	1	248	0.00	30.025 
23:15	32.5	32.5	32.5	89	29.6	0	1	248	0.00	30.021 
23:20	32.5	32.5	32.5	89	29.6	0	0	---	0.00	30.021 
23:25	32.5	32.5	32.5	88	29.3	0	1	248	0.00	30.021 
23:30	32.5	32.5	32.5	88	29.3	0	1	248	0.00	30.023 
23:35	32.4	32.4	32.4	87	29.0	0	2	248	0.00	30.023 
23:40	32.4	32.4	32.4	87	29.0	0	1	248	0.00	30.023 
23:45	32.4	32.4	32.4	86	28.7	0	1	248	0.00	30.021 
23:50	32.4	32.4	32.4	86	28.7	0	1	248	0.00	30.021 
23:55	32.4	32.4	32.4	85	28.4	0	1	248	0.00	30.021 

CoCoRaHS
IN-AL-39
A2 Web Hosting
Creative Commons License
GoDaddy
search engine by freefind advanced

loaded 2018-11-12 14:58:13 • last modified 2010-11-18 10:43:29
Privacy PolicyDisclaimer
• wx.awcolley.com is powered by PmWiki v.2002016 •
• all content (unless otherwise noted) © 2018 A W Colley